Time;durP1;ratioP1;P1;durP2;ratioP2;P2;SDS_P1;SDS_P2;PMS_P1;PMS_P2;Temp;Humidity;BMP_temperature;BMP_pressure;BME280_temperature;BME280_humidity;BME280_pressure;Samples;Min_cycle;Max_cycle;Signal;HPM_P1;HPM_P2
2021/12/30 00:00:55;;;;;;;0.30;0.30;;;13.40;99.90;;;;;;5054543;28;20254;-88
2021/12/30 00:03:21;;;;;;;0.57;0.30;;;13.30;99.90;;;;;;5037060;28;20234;-87
2021/12/30 00:05:48;;;;;;;0.80;0.40;;;13.30;99.90;;;;;;5054388;28;20688;-80
2021/12/30 00:08:14;;;;;;;1.03;0.40;;;13.40;99.90;;;;;;5054364;28;20238;-80
2021/12/30 00:10:40;;;;;;;0.20;0.20;;;13.40;99.90;;;;;;5053460;28;20552;-80
2021/12/30 00:13:06;;;;;;;0.50;0.30;;;13.30;99.90;;;;;;5021769;28;20188;-81
2021/12/30 00:15:33;;;;;;;0.47;0.30;;;13.20;99.90;;;;;;5052781;28;20614;-88
2021/12/30 00:17:59;;;;;;;0.20;0.20;;;13.20;99.90;;;;;;5069403;28;20180;-80
2021/12/30 00:20:26;;;;;;;0.47;0.40;;;13.40;99.90;;;;;;5054475;28;20253;-88
2021/12/30 00:22:52;;;;;;;0.67;0.20;;;13.40;99.90;;;;;;5072010;28;20728;-88
2021/12/30 00:25:18;;;;;;;0.80;0.50;;;13.30;99.90;;;;;;5053207;28;20220;-88
2021/12/30 00:27:44;;;;;;;0.45;0.35;;;13.30;99.90;;;;;;5053096;28;20196;-80
2021/12/30 00:30:12;;;;;;;0.33;0.33;;;13.30;99.90;;;;;;5053870;28;20351;-86
2021/12/30 00:32:39;;;;;;;0.30;0.30;;;13.40;99.90;;;;;;5053525;28;20214;-86
2021/12/30 00:35:06;;;;;;;0.83;0.50;;;13.40;99.90;;;;;;5054104;28;20192;-87
2021/12/30 00:37:32;;;;;;;1.20;0.40;;;13.30;99.90;;;;;;5072892;28;20199;-87
2021/12/30 00:39:58;;;;;;;0.20;0.20;;;13.30;99.90;;;;;;5071616;28;20616;-89
2021/12/30 00:42:24;;;;;;;0.83;0.50;;;13.30;99.90;;;;;;5053904;28;20286;-88
2021/12/30 00:44:49;;;;;;;1.80;0.50;;;13.30;99.90;;;;;;5037976;28;20216;-80
2021/12/30 00:47:15;;;;;;;0.45;0.40;;;13.40;99.90;;;;;;5053088;28;20545;-81
2021/12/30 00:49:42;;;;;;;0.40;0.40;;;13.40;99.90;;;;;;5036330;28;20215;-82
2021/12/30 00:52:07;;;;;;;0.40;0.40;;;13.40;99.90;;;;;;5021277;28;20600;-88
2021/12/30 00:54:33;;;;;;;0.40;0.40;;;13.40;99.90;;;;;;5054157;28;20202;-88
2021/12/30 00:56:59;;;;;;;1.13;0.47;;;13.40;99.90;;;;;;5037905;28;20209;-90
2021/12/30 00:59:26;;;;;;;0.50;0.30;;;13.40;99.90;;;;;;5036382;28;20222;-82
2021/12/30 01:01:52;;;;;;;1.23;0.40;;;13.40;99.90;;;;;;5021590;28;20420;-89
2021/12/30 01:04:20;;;;;;;0.50;0.50;;;13.40;99.90;;;;;;5070168;28;20192;-87
2021/12/30 01:06:46;;;;;;;1.30;0.60;;;13.40;99.90;;;;;;5036317;28;20204;-80
2021/12/30 01:09:12;;;;;;;1.03;0.50;;;13.50;99.90;;;;;;5069567;28;20196;-87
2021/12/30 01:11:38;;;;;;;0.40;0.40;;;13.50;99.90;;;;;;5036151;28;20196;-89
2021/12/30 01:14:14;;;;;;;0.53;0.30;;;13.40;99.90;;;;;;5052721;28;20242;-86
2021/12/30 01:16:43;;;;;;;0.63;0.30;;;13.40;99.90;;;;;;5074342;28;20183;-80
2021/12/30 01:21:54;;;;;;;0.40;0.30;;;13.40;99.90;;;;;;5089585;28;20282;-80
2021/12/30 01:24:22;;;;;;;0.40;0.40;;;13.30;99.90;;;;;;5074708;28;20196;-87
2021/12/30 01:26:48;;;;;;;0.73;0.37;;;13.30;99.90;;;;;;5073316;28;20294;-89
2021/12/30 01:29:14;;;;;;;1.73;0.40;;;13.20;99.90;;;;;;5094638;28;20226;-82
2021/12/30 01:31:40;;;;;;;0.83;0.30;;;13.20;99.90;;;;;;5095269;28;20264;-89
2021/12/30 01:34:06;;;;;;;0.67;0.37;;;13.20;99.90;;;;;;5078601;28;20183;-86
2021/12/30 01:36:32;;;;;;;0.73;0.40;;;13.30;99.90;;;;;;5095538;28;20678;-89
2021/12/30 01:38:58;;;;;;;1.03;0.60;;;13.40;99.90;;;;;;5077361;28;20186;-80
2021/12/30 01:41:24;;;;;;;0.93;0.30;;;13.40;99.90;;;;;;5095689;28;20190;-80
2021/12/30 01:43:51;;;;;;;0.37;0.37;;;13.50;99.90;;;;;;5078165;28;20187;-87
2021/12/30 01:46:17;;;;;;;2.00;0.53;;;13.40;99.90;;;;;;5078132;28;20638;-80
2021/12/30 01:48:43;;;;;;;0.37;0.30;;;13.50;99.90;;;;;;5039546;28;20214;-82
2021/12/30 01:51:10;;;;;;;1.23;0.53;;;13.40;99.90;;;;;;5073683;28;20196;-82
2021/12/30 01:53:36;;;;;;;0.40;0.40;;;13.30;99.90;;;;;;5055718;28;20188;-82
2021/12/30 01:56:04;;;;;;;1.03;0.47;;;13.50;99.90;;;;;;5075357;28;20196;-90
2021/12/30 01:58:30;;;;;;;0.90;0.40;;;13.40;99.90;;;;;;5056456;28;20200;-79
2021/12/30 02:00:57;;;;;;;0.50;0.40;;;13.30;99.90;;;;;;5039563;28;20282;-82
2021/12/30 02:03:23;;;;;;;1.00;0.47;;;13.30;99.90;;;;;;5056131;28;20231;-80
2021/12/30 02:05:50;;;;;;;0.43;0.40;;;13.30;99.90;;;;;;5055671;28;20212;-87
2021/12/30 02:08:18;;;;;;;0.87;0.40;;;13.20;99.90;;;;;;5055901;28;20655;-80
2021/12/30 02:10:46;;;;;;;2.57;0.50;;;13.30;99.90;;;;;;5057310;28;20196;-87
2021/12/30 02:13:14;;;;;;;0.77;0.40;;;13.50;99.90;;;;;;5055998;28;20557;-82
2021/12/30 02:15:40;;;;;;;1.17;0.50;;;13.40;99.90;;;;;;5038646;28;20636;-80
2021/12/30 02:18:06;;;;;;;1.33;0.53;;;13.30;99.90;;;;;;5053815;28;20197;-86
2021/12/30 02:20:53;;;;;;;0.53;0.53;;;13.20;99.90;;;;;;5082510;28;20559;-82
2021/12/30 02:23:34;;;;;;;2.03;0.47;;;13.20;99.90;;;;;;5057777;28;20270;-88
2021/12/30 02:26:04;;;;;;;1.80;0.40;;;13.30;99.90;;;;;;5056054;28;20204;-83
2021/12/30 02:28:32;;;;;;;1.07;0.60;;;13.30;99.90;;;;;;5056067;28;20181;-81
2021/12/30 02:31:00;;;;;;;0.90;0.57;;;13.30;99.90;;;;;;5057086;28;20295;-88
2021/12/30 02:33:27;;;;;;;1.87;0.50;;;13.40;99.90;;;;;;5074766;28;20192;-80
2021/12/30 02:35:55;;;;;;;0.70;0.40;;;13.40;99.90;;;;;;5039632;28;20567;-81
2021/12/30 02:38:23;;;;;;;1.33;0.60;;;13.40;99.90;;;;;;5038389;28;20200;-88
2021/12/30 02:40:52;;;;;;;1.17;0.47;;;13.40;99.90;;;;;;5056825;28;20289;-86
2021/12/30 02:43:28;;;;;;;3.30;0.47;;;13.40;99.90;;;;;;5056927;28;20269;-81
2021/12/30 02:45:55;;;;;;;1.47;0.40;;;13.50;99.90;;;;;;5055789;28;20227;-80
2021/12/30 02:48:24;;;;;;;0.43;0.30;;;13.50;99.90;;;;;;5055445;28;20295;-81
2021/12/30 02:50:53;;;;;;;2.00;0.43;;;13.40;99.90;;;;;;5073290;28;20192;-81
2021/12/30 02:53:20;;;;;;;0.68;0.47;;;13.40;99.90;;;;;;5072466;28;20189;-81
2021/12/30 02:55:46;;;;;;;0.60;0.40;;;13.40;99.90;;;;;;5072485;28;20294;-80
2021/12/30 02:58:12;;;;;;;0.83;0.63;;;13.60;99.90;;;;;;5074220;28;20654;-87
2021/12/30 03:00:39;;;;;;;1.87;0.40;;;13.40;99.90;;;;;;5056893;28;20295;-89
2021/12/30 03:03:05;;;;;;;1.03;0.50;;;13.50;99.90;;;;;;5073089;28;20225;-80
2021/12/30 03:05:32;;;;;;;0.50;0.33;;;13.50;99.90;;;;;;5038586;28;20220;-81
2021/12/30 03:07:58;;;;;;;0.30;0.30;;;13.50;99.90;;;;;;5074031;28;20226;-81
2021/12/30 03:10:29;;;;;;;1.33;0.38;;;13.40;99.90;;;;;;5070181;28;20212;-80
2021/12/30 03:13:03;;;;;;;0.43;0.38;;;13.50;99.90;;;;;;5072265;28;20667;-90
2021/12/30 03:15:29;;;;;;;1.03;0.40;;;13.30;99.90;;;;;;5072910;28;20204;-89
2021/12/30 03:17:55;;;;;;;0.87;0.30;;;13.40;99.90;;;;;;5039646;28;20572;-82
2021/12/30 03:20:21;;;;;;;1.17;0.50;;;13.40;99.90;;;;;;5071492;28;20480;-89
2021/12/30 03:22:47;;;;;;;1.23;0.50;;;13.40;99.90;;;;;;5072225;28;20218;-83
2021/12/30 03:25:14;;;;;;;0.97;0.53;;;13.40;99.90;;;;;;5055369;28;20216;-82
2021/12/30 03:27:41;;;;;;;0.37;0.37;;;13.40;99.90;;;;;;5071671;28;20200;-85
2021/12/30 03:30:11;;;;;;;0.30;0.30;;;13.40;99.90;;;;;;5055130;28;20277;-80
2021/12/30 03:32:37;;;;;;;0.70;0.50;;;13.50;99.90;;;;;;5071786;28;20199;-89
2021/12/30 03:35:03;;;;;;;0.43;0.43;;;13.50;99.90;;;;;;5072294;28;20211;-81
2021/12/30 03:37:29;;;;;;;0.30;0.30;;;13.40;99.90;;;;;;5055917;28;20204;-89
2021/12/30 03:39:55;;;;;;;3.25;0.45;;;13.40;99.90;;;;;;5072801;28;20176;-91
2021/12/30 03:42:21;;;;;;;1.40;0.40;;;13.40;99.90;;;;;;5071173;28;20671;-81
2021/12/30 03:44:48;;;;;;;2.10;0.30;;;13.40;99.90;;;;;;5054977;28;20697;-89
2021/12/30 03:47:17;;;;;;;0.47;0.30;;;13.40;99.90;;;;;;5058347;28;20254;-87
2021/12/30 03:49:46;;;;;;;0.30;0.30;;;13.40;99.90;;;;;;5072352;28;20250;-82
2021/12/30 03:52:23;;;;;;;0.35;0.35;;;13.40;99.90;;;;;;5053493;28;20232;-81
2021/12/30 03:54:49;;;;;;;1.00;0.77;;;13.40;99.90;;;;;;5051649;28;20204;-81
2021/12/30 03:57:15;;;;;;;0.57;0.47;;;13.30;99.90;;;;;;5053161;28;20200;-90
2021/12/30 03:59:41;;;;;;;1.50;0.60;;;13.30;99.90;;;;;;5051600;28;20279;-89
2021/12/30 04:02:07;;;;;;;0.50;0.30;;;13.30;99.90;;;;;;5051903;28;20212;-89
2021/12/30 04:04:33;;;;;;;1.47;0.30;;;13.30;99.90;;;;;;5057405;28;20212;-82
2021/12/30 04:07:00;;;;;;;3.03;0.50;;;13.20;99.90;;;;;;5051090;28;20209;-81
2021/12/30 04:09:26;;;;;;;0.82;0.50;;;13.20;99.90;;;;;;5052036;28;20210;-81
2021/12/30 04:11:52;;;;;;;1.83;0.60;;;13.20;99.90;;;;;;5052939;28;20683;-86
2021/12/30 04:14:18;;;;;;;1.05;0.60;;;13.20;99.90;;;;;;5051584;28;20180;-89
2021/12/30 04:16:44;;;;;;;0.93;0.57;;;13.30;99.90;;;;;;5019004;28;20196;-80
2021/12/30 04:19:10;;;;;;;0.47;0.30;;;13.20;99.90;;;;;;5056122;28;20224;-90
2021/12/30 04:21:35;;;;;;;0.40;0.40;;;13.20;99.90;;;;;;5055744;28;20629;-82
2021/12/30 04:24:02;;;;;;;0.55;0.38;;;13.30;99.90;;;;;;5072060;28;20195;-88
2021/12/30 04:26:28;;;;;;;1.50;0.50;;;13.30;99.90;;;;;;5071532;28;20216;-87
2021/12/30 04:28:54;;;;;;;0.63;0.33;;;13.30;99.90;;;;;;5022191;28;20203;-88
2021/12/30 04:31:20;;;;;;;0.43;0.33;;;13.30;99.90;;;;;;5055282;28;20200;-88
2021/12/30 04:33:45;;;;;;;0.70;0.60;;;13.20;99.90;;;;;;5038277;28;20599;-89
2021/12/30 04:36:11;;;;;;;0.90;0.43;;;13.20;99.90;;;;;;5055922;28;20282;-90
2021/12/30 04:38:38;;;;;;;0.52;0.40;;;13.20;99.90;;;;;;5072292;28;20253;-83
2021/12/30 04:41:05;;;;;;;0.63;0.40;;;13.20;99.90;;;;;;5070272;28;20204;-90
2021/12/30 04:43:33;;;;;;;0.40;0.40;;;13.30;99.90;;;;;;5022711;28;20188;-84
2021/12/30 04:46:00;;;;;;;0.33;0.30;;;13.30;99.90;;;;;;5071132;28;20219;-82
2021/12/30 04:48:26;;;;;;;0.40;0.40;;;13.20;99.90;;;;;;5054506;28;20257;-81
2021/12/30 04:50:53;;;;;;;0.67;0.50;;;13.30;99.90;;;;;;5070662;28;20196;-81
2021/12/30 04:53:19;;;;;;;0.90;0.40;;;13.20;99.90;;;;;;5054973;28;20196;-88
2021/12/30 04:55:46;;;;;;;1.03;0.50;;;13.30;99.90;;;;;;5070894;28;20200;-88
2021/12/30 04:58:13;;;;;;;0.40;0.30;;;13.20;99.90;;;;;;5072082;28;20220;-89
2021/12/30 05:00:39;;;;;;;0.60;0.43;;;13.20;99.90;;;;;;5073703;28;20196;-81
2021/12/30 05:05:44;;;;;;;0.93;0.30;;;13.20;99.90;;;;;;5075490;28;20220;-82
2021/12/30 05:08:10;;;;;;;0.30;0.30;;;13.20;99.90;;;;;;5042348;28;20693;-86
2021/12/30 05:10:37;;;;;;;0.70;0.50;;;13.20;99.90;;;;;;5058241;28;20176;-89
2021/12/30 05:13:04;;;;;;;0.40;0.40;;;13.20;99.90;;;;;;5073561;28;20220;-89
2021/12/30 05:15:30;;;;;;;0.40;0.30;;;13.20;99.90;;;;;;5025249;28;20690;-90
2021/12/30 05:17:56;;;;;;;0.57;0.40;;;13.10;99.90;;;;;;5058895;28;20242;-81
2021/12/30 05:20:23;;;;;;;0.40;0.40;;;13.10;99.90;;;;;;5073937;28;20253;-89
2021/12/30 05:22:49;;;;;;;0.47;0.40;;;13.10;99.90;;;;;;5074454;28;20267;-81
2021/12/30 05:25:17;;;;;;;0.50;0.47;;;13.10;99.90;;;;;;5074631;28;20287;-87
2021/12/30 05:27:43;;;;;;;0.67;0.30;;;13.10;99.90;;;;;;5074794;28;20353;-90
2021/12/30 05:30:11;;;;;;;0.45;0.40;;;13.00;99.90;;;;;;5060282;28;20200;-87
2021/12/30 05:32:37;;;;;;;0.67;0.50;;;13.00;99.90;;;;;;5041517;28;20579;-89
2021/12/30 05:35:04;;;;;;;0.98;0.40;;;13.00;99.90;;;;;;5057440;28;20279;-87
2021/12/30 05:37:30;;;;;;;1.00;0.50;;;12.90;99.90;;;;;;5057144;28;20663;-90
2021/12/30 05:39:56;;;;;;;1.67;0.50;;;12.90;99.90;;;;;;5059022;28;20195;-81
2021/12/30 05:42:23;;;;;;;0.90;0.47;;;13.00;99.90;;;;;;5024125;28;20280;-81
2021/12/30 05:44:55;;;;;;;0.40;0.40;;;12.90;99.90;;;;;;5058828;28;20215;-83
2021/12/30 05:47:22;;;;;;;0.90;0.60;;;12.90;99.90;;;;;;5043902;28;20208;-82
2021/12/30 05:49:48;;;;;;;0.80;0.80;;;12.90;99.90;;;;;;5075672;28;20207;-89
2021/12/30 05:52:15;;;;;;;0.70;0.70;;;12.80;99.90;;;;;;5073575;28;20212;-82
2021/12/30 05:54:41;;;;;;;0.40;0.40;;;12.80;99.90;;;;;;5057499;28;20200;-90
2021/12/30 05:57:07;;;;;;;0.87;0.40;;;12.80;99.90;;;;;;5060479;28;20231;-91
2021/12/30 05:59:33;;;;;;;1.15;0.45;;;12.80;99.90;;;;;;5076194;28;20192;-92
2021/12/30 06:01:59;;;;;;;0.40;0.40;;;12.80;99.90;;;;;;5074021;28;20717;-90
2021/12/30 06:04:27;;;;;;;0.30;0.30;;;12.90;99.90;;;;;;5075494;28;20197;-89
2021/12/30 06:06:53;;;;;;;0.55;0.30;;;12.90;99.90;;;;;;5074511;28;20227;-88
2021/12/30 06:09:22;;;;;;;0.95;0.50;;;12.90;99.90;;;;;;5057376;28;20204;-88
2021/12/30 06:11:48;;;;;;;0.35;0.35;;;12.90;99.90;;;;;;5073415;28;20237;-88
2021/12/30 06:14:14;;;;;;;0.40;0.40;;;13.00;99.90;;;;;;5073292;28;20303;-83
2021/12/30 06:16:40;;;;;;;0.30;0.30;;;13.00;99.90;;;;;;5059367;28;20200;-89
2021/12/30 06:19:05;;;;;;;0.77;0.30;;;13.10;99.90;;;;;;5075105;28;20211;-89
2021/12/30 06:21:31;;;;;;;0.30;0.30;;;13.00;99.90;;;;;;5025081;28;20200;-90
2021/12/30 06:23:57;;;;;;;0.97;0.20;;;13.10;99.90;;;;;;5074655;28;20678;-81
2021/12/30 06:26:23;;;;;;;0.47;0.32;;;13.10;99.90;;;;;;5039454;28;20212;-90
2021/12/30 06:28:49;;;;;;;0.30;0.30;;;13.10;99.90;;;;;;5057274;28;20317;-82
2021/12/30 06:31:15;;;;;;;0.90;0.40;;;13.10;99.90;;;;;;5072642;28;20200;-88
2021/12/30 06:33:40;;;;;;;0.77;0.40;;;13.10;99.90;;;;;;5026362;28;20196;-82
2021/12/30 06:36:06;;;;;;;0.20;0.20;;;13.10;99.90;;;;;;5055776;28;20181;-80
2021/12/30 06:38:33;;;;;;;1.37;0.30;;;13.10;99.90;;;;;;5075716;28;20722;-81
2021/12/30 06:40:59;;;;;;;1.37;0.50;;;13.10;99.90;;;;;;5056599;28;20662;-89
2021/12/30 06:43:25;;;;;;;0.87;0.30;;;13.00;99.90;;;;;;5059877;28;20269;-81
2021/12/30 06:45:51;;;;;;;0.30;0.30;;;13.10;99.90;;;;;;5040988;28;20216;-83
2021/12/30 06:48:17;;;;;;;0.87;0.40;;;13.20;99.90;;;;;;5059494;28;20679;-90
2021/12/30 06:50:51;;;;;;;3.80;0.30;;;13.20;99.90;;;;;;5075121;28;20234;-81
2021/12/30 06:53:22;;;;;;;0.20;0.20;;;13.20;99.90;;;;;;5057682;28;20219;-90
2021/12/30 06:55:49;;;;;;;0.40;0.30;;;13.10;99.90;;;;;;5056298;28;20196;-89
2021/12/30 06:58:16;;;;;;;0.77;0.40;;;13.20;99.90;;;;;;5040026;28;20208;-88
2021/12/30 07:00:43;;;;;;;0.80;0.50;;;13.10;99.90;;;;;;5042119;28;20189;-89
2021/12/30 07:03:08;;;;;;;0.70;0.50;;;13.10;99.90;;;;;;5075103;28;20184;-80
2021/12/30 07:05:34;;;;;;;0.65;0.60;;;13.10;99.90;;;;;;5022140;28;20227;-80
2021/12/30 07:08:00;;;;;;;1.05;0.50;;;13.10;99.90;;;;;;5039227;28;20295;-80
2021/12/30 07:10:27;;;;;;;0.40;0.40;;;13.10;99.90;;;;;;5043605;28;20197;-80
2021/12/30 07:12:53;;;;;;;0.77;0.50;;;13.10;99.90;;;;;;5056429;28;20188;-88
2021/12/30 07:15:20;;;;;;;7.37;5.33;;;13.10;99.90;;;;;;5054548;28;20228;-86
2021/12/30 07:17:46;;;;;;;3.28;2.38;;;13.10;99.90;;;;;;5055934;28;20195;-85
2021/12/30 07:20:13;;;;;;;0.53;0.50;;;13.10;99.90;;;;;;5054493;28;20281;-87
2021/12/30 07:22:39;;;;;;;0.93;0.60;;;13.10;99.90;;;;;;5070989;28;20238;-81
2021/12/30 07:25:06;;;;;;;0.50;0.50;;;13.10;99.90;;;;;;5070435;28;20200;-80
2021/12/30 07:27:32;;;;;;;0.43;0.43;;;13.20;99.90;;;;;;5070875;28;20680;-85
2021/12/30 07:29:59;;;;;;;0.82;0.60;;;13.10;99.90;;;;;;5053563;28;20537;-80
2021/12/30 07:32:28;;;;;;;0.47;0.40;;;13.10;99.90;;;;;;5054347;28;20184;-86
2021/12/30 07:34:54;;;;;;;0.60;0.50;;;13.10;99.90;;;;;;5084218;28;20200;-81
2021/12/30 07:37:20;;;;;;;0.47;0.37;;;13.20;99.90;;;;;;5071593;28;20247;-88
2021/12/30 07:39:49;;;;;;;1.25;0.70;;;13.20;99.90;;;;;;5074309;28;20228;-86
2021/12/30 07:42:14;;;;;;;1.73;0.50;;;13.20;99.90;;;;;;5055941;28;20204;-82
2021/12/30 07:44:40;;;;;;;0.63;0.50;;;13.20;99.90;;;;;;5072616;28;20222;-82
2021/12/30 07:47:07;;;;;;;0.93;0.57;;;13.30;99.90;;;;;;5070469;28;20216;-89
2021/12/30 07:49:36;;;;;;;1.50;0.40;;;13.30;99.90;;;;;;5056057;28;20557;-87
2021/12/30 07:52:06;;;;;;;2.47;0.87;;;13.30;99.90;;;;;;5053452;28;20679;-86
2021/12/30 07:54:34;;;;;;;0.47;0.40;;;13.30;99.90;;;;;;5070751;28;20203;-84
2021/12/30 07:57:00;;;;;;;1.63;0.60;;;13.30;99.90;;;;;;5069671;28;20207;-86
2021/12/30 07:59:27;;;;;;;2.20;0.60;;;13.40;99.90;;;;;;5037503;28;20177;-82
2021/12/30 08:01:56;;;;;;;0.50;0.40;;;13.40;99.90;;;;;;5067567;28;20331;-82
2021/12/30 08:04:22;;;;;;;10.70;2.03;;;13.30;99.90;;;;;;5063273;28;20204;-86
2021/12/30 08:06:48;;;;;;;3.50;1.10;;;13.30;99.90;;;;;;5070178;28;20223;-86
2021/12/30 08:09:14;;;;;;;1.80;0.60;;;13.40;99.90;;;;;;5071767;28;20203;-86
2021/12/30 08:11:39;;;;;;;0.50;0.40;;;13.40;99.90;;;;;;5067390;28;20211;-82
2021/12/30 08:14:05;;;;;;;1.87;0.40;;;13.40;99.90;;;;;;5071583;28;20207;-87
2021/12/30 08:16:31;;;;;;;0.70;0.50;;;13.40;99.90;;;;;;5069476;28;20774;-82
2021/12/30 08:18:59;;;;;;;0.90;0.60;;;13.40;99.90;;;;;;5069548;28;20196;-89
2021/12/30 08:21:27;;;;;;;1.37;0.40;;;13.40;99.90;;;;;;5040768;28;20208;-82
2021/12/30 08:23:54;;;;;;;0.53;0.40;;;13.40;99.90;;;;;;5053079;28;20204;-81
2021/12/30 08:26:21;;;;;;;0.80;0.60;;;13.40;99.90;;;;;;5066604;28;20226;-80
2021/12/30 08:28:47;;;;;;;1.37;0.70;;;13.50;99.90;;;;;;5070439;28;20204;-79
2021/12/30 08:31:13;;;;;;;0.53;0.40;;;13.60;99.90;;;;;;5072710;28;20196;-80
2021/12/30 08:33:40;;;;;;;0.87;0.40;;;13.60;99.90;;;;;;5086399;28;20237;-83
2021/12/30 08:36:06;;;;;;;0.30;0.30;;;13.70;99.90;;;;;;5085000;28;20200;-82
2021/12/30 08:38:32;;;;;;;0.33;0.30;;;13.70;99.90;;;;;;5072745;28;20204;-83
2021/12/30 08:40:58;;;;;;;1.37;0.50;;;13.70;99.90;;;;;;5071585;28;20279;-84
2021/12/30 08:43:25;;;;;;;3.45;0.70;;;13.70;99.90;;;;;;5073917;28;20200;-83
2021/12/30 08:45:51;;;;;;;1.70;0.50;;;13.70;99.90;;;;;;5075128;28;20295;-80
2021/12/30 08:48:19;;;;;;;0.30;0.30;;;13.70;99.90;;;;;;5073277;28;20789;-81
2021/12/30 08:50:46;;;;;;;1.25;0.60;;;13.80;99.90;;;;;;5073260;28;20207;-81
2021/12/30 08:53:14;;;;;;;0.97;0.53;;;13.80;99.90;;;;;;5056926;28;20679;-80
2021/12/30 08:55:40;;;;;;;0.80;0.57;;;13.80;99.90;;;;;;5073926;28;20172;-80
2021/12/30 08:58:06;;;;;;;0.50;0.50;;;13.80;99.90;;;;;;5056579;28;20211;-82
2021/12/30 09:00:41;;;;;;;1.07;0.50;;;13.80;99.90;;;;;;5073430;28;20736;-81
2021/12/30 09:03:07;;;;;;;3.13;0.70;;;13.90;99.90;;;;;;5050387;28;20204;-82
2021/12/30 09:05:34;;;;;;;0.40;0.30;;;13.90;99.90;;;;;;5073103;28;20224;-81
2021/12/30 09:08:01;;;;;;;0.80;0.55;;;13.90;99.90;;;;;;5064474;28;20195;-83
2021/12/30 09:10:29;;;;;;;0.43;0.40;;;14.00;99.90;;;;;;5072418;28;20287;-81
2021/12/30 09:12:55;;;;;;;1.80;0.73;;;14.10;99.90;;;;;;5071727;28;20200;-81
2021/12/30 09:15:24;;;;;;;1.10;0.50;;;14.10;99.90;;;;;;5071602;28;20615;-80
2021/12/30 09:17:51;;;;;;;0.55;0.52;;;14.20;99.90;;;;;;5074285;28;20223;-79
2021/12/30 09:20:18;;;;;;;0.80;0.60;;;14.30;99.90;;;;;;5085636;28;20563;-81
2021/12/30 09:22:44;;;;;;;0.85;0.47;;;14.30;99.90;;;;;;5053274;28;20207;-81
2021/12/30 09:25:11;;;;;;;0.70;0.50;;;14.30;99.90;;;;;;5068665;28;20213;-78
2021/12/30 09:27:40;;;;;;;1.23;0.80;;;14.30;99.90;;;;;;5062759;28;21007;-79
2021/12/30 09:30:16;;;;;;;0.28;0.28;;;14.40;99.90;;;;;;5073007;28;20197;-81
2021/12/30 09:32:43;;;;;;;3.17;2.03;;;14.60;99.90;;;;;;5073890;28;20192;-77
2021/12/30 09:35:11;;;;;;;0.40;0.40;;;14.70;99.90;;;;;;5073190;28;20311;-77
2021/12/30 09:37:38;;;;;;;0.77;0.40;;;14.70;99.90;;;;;;5071358;28;20201;-77
2021/12/30 09:40:05;;;;;;;0.93;0.40;;;14.70;99.90;;;;;;5074507;28;20232;-79
2021/12/30 09:42:34;;;;;;;0.63;0.30;;;14.80;99.90;;;;;;5071440;28;20188;-77
2021/12/30 09:45:00;;;;;;;0.60;0.40;;;14.70;99.90;;;;;;5070740;28;20215;-79
2021/12/30 09:47:25;;;;;;;1.20;0.40;;;14.80;99.90;;;;;;5072241;28;20192;-76
2021/12/30 09:49:53;;;;;;;1.00;0.50;;;14.70;99.90;;;;;;5072883;28;20192;-77
2021/12/30 09:52:19;;;;;;;2.00;0.60;;;14.70;99.90;;;;;;5056379;28;20211;-77
2021/12/30 09:54:45;;;;;;;0.47;0.45;;;14.70;99.90;;;;;;5073296;28;20257;-84
2021/12/30 09:57:11;;;;;;;0.30;0.30;;;14.70;99.90;;;;;;5055668;28;20192;-79
2021/12/30 09:59:38;;;;;;;0.70;0.40;;;14.70;99.90;;;;;;5056421;28;20327;-78
2021/12/30 10:02:04;;;;;;;0.60;0.50;;;14.70;99.90;;;;;;5053421;28;20212;-80
2021/12/30 10:04:32;;;;;;;0.68;0.50;;;14.70;99.90;;;;;;5054985;28;20682;-81
2021/12/30 10:06:59;;;;;;;0.57;0.50;;;14.80;99.90;;;;;;5053470;28;20217;-81
2021/12/30 10:09:39;;;;;;;1.23;0.70;;;14.80;99.90;;;;;;5058278;28;20690;-84
2021/12/30 10:12:07;;;;;;;0.75;0.57;;;14.80;99.90;;;;;;5056372;28;20211;-85
2021/12/30 10:14:37;;;;;;;3.33;2.40;;;14.90;99.90;;;;;;5056311;28;20224;-86
2021/12/30 10:17:24;;;;;;;0.88;0.60;;;14.80;99.90;;;;;;5077874;28;20196;-80
2021/12/30 10:19:51;;;;;;;0.82;0.65;;;14.90;99.90;;;;;;5072698;28;20198;-79
2021/12/30 10:22:21;;;;;;;0.57;0.50;;;14.80;99.90;;;;;;5074552;28;20189;-82
2021/12/30 10:24:48;;;;;;;1.40;0.60;;;14.90;99.90;;;;;;5071800;28;20330;-82
2021/12/30 10:27:29;;;;;;;0.60;0.50;;;14.80;99.90;;;;;;5073259;28;20212;-81
2021/12/30 10:29:56;;;;;;;1.70;0.40;;;14.90;99.90;;;;;;5038972;28;20597;-83
2021/12/30 10:32:24;;;;;;;0.40;0.35;;;14.90;99.90;;;;;;5072233;28;20192;-82
2021/12/30 10:35:10;;;;;;;0.50;0.43;;;14.90;99.90;;;;;;5055639;28;20193;-83
2021/12/30 10:37:38;;;;;;;0.77;0.52;;;14.90;99.90;;;;;;5059433;28;20349;-84
2021/12/30 10:40:05;;;;;;;0.47;0.38;;;14.90;99.90;;;;;;5072788;28;20292;-80
2021/12/30 10:42:33;;;;;;;0.60;0.43;;;14.90;99.90;;;;;;5072192;28;20196;-77
2021/12/30 10:45:06;;;;;;;1.48;0.40;;;14.90;99.90;;;;;;5073674;28;20218;-77
2021/12/30 10:47:50;;;;;;;0.63;0.40;;;15.00;99.90;;;;;;5092404;28;20200;-81
2021/12/30 10:50:20;;;;;;;2.08;0.70;;;15.10;99.90;;;;;;5054858;28;20222;-82
2021/12/30 10:52:48;;;;;;;1.20;0.50;;;15.20;99.90;;;;;;5073911;28;20173;-81
2021/12/30 10:55:15;;;;;;;0.73;0.50;;;15.30;99.90;;;;;;5073827;28;20201;-79
2021/12/30 10:57:41;;;;;;;0.60;0.50;;;15.40;99.90;;;;;;5073290;28;20196;-80
2021/12/30 11:00:08;;;;;;;0.98;0.70;;;15.60;99.90;;;;;;5039340;28;20222;-81
2021/12/30 11:02:36;;;;;;;0.47;0.40;;;15.70;99.90;;;;;;5071273;28;20248;-82
2021/12/30 11:05:10;;;;;;;0.90;0.60;;;15.60;99.90;;;;;;5071080;28;20292;-80
2021/12/30 11:07:53;;;;;;;0.60;0.60;;;15.70;99.90;;;;;;5071715;28;20203;-79
2021/12/30 11:10:36;;;;;;;0.75;0.40;;;15.60;99.90;;;;;;5074059;28;20192;-78
2021/12/30 11:13:13;;;;;;;0.68;0.50;;;15.60;99.90;;;;;;5075626;28;20184;-81
2021/12/30 11:15:41;;;;;;;0.77;0.45;;;15.80;99.90;;;;;;5073583;28;20200;-79
2021/12/30 11:18:16;;;;;;;0.52;0.40;;;15.80;99.90;;;;;;5053985;28;20678;-81
2021/12/30 11:20:45;;;;;;;0.50;0.47;;;15.90;99.90;;;;;;5070987;28;20200;-80
2021/12/30 11:23:14;;;;;;;0.75;0.50;;;15.90;99.90;;;;;;5070909;28;20211;-79
2021/12/30 11:25:41;;;;;;;0.95;0.60;;;15.90;99.90;;;;;;5055123;28;20676;-80
2021/12/30 11:28:08;;;;;;;0.60;0.50;;;16.00;99.90;;;;;;5055122;28;20196;-80
2021/12/30 11:30:34;;;;;;;1.08;0.70;;;16.00;99.90;;;;;;5055344;28;20216;-78
2021/12/30 11:33:00;;;;;;;0.73;0.50;;;16.00;99.90;;;;;;5073680;28;20581;-82
2021/12/30 11:35:27;;;;;;;0.60;0.60;;;16.10;99.90;;;;;;5072857;28;20171;-78
2021/12/30 11:37:56;;;;;;;0.77;0.50;;;16.20;99.90;;;;;;5054375;28;20203;-81
2021/12/30 11:40:25;;;;;;;0.40;0.40;;;16.20;99.90;;;;;;5071193;28;20694;-80
2021/12/30 11:43:07;;;;;;;0.55;0.40;;;16.30;99.90;;;;;;5039441;28;20694;-81
2021/12/30 11:45:38;;;;;;;1.02;0.57;;;16.40;99.90;;;;;;5070548;28;20208;-81
2021/12/30 11:48:27;;;;;;;0.75;0.40;;;16.50;99.90;;;;;;5070701;28;20291;-79
2021/12/30 11:51:09;;;;;;;0.50;0.50;;;16.50;99.90;;;;;;5070946;28;20194;-79
2021/12/30 11:53:40;;;;;;;0.75;0.40;;;16.70;99.90;;;;;;5071961;28;20192;-81
2021/12/30 11:56:24;;;;;;;0.35;0.35;;;16.60;99.90;;;;;;5055822;28;20226;-81
2021/12/30 11:58:53;;;;;;;2.97;0.50;;;16.70;99.90;;;;;;5055672;28;20650;-82
2021/12/30 12:01:19;;;;;;;0.73;0.50;;;16.60;99.90;;;;;;5073202;28;20200;-79
2021/12/30 12:03:55;;;;;;;0.80;0.50;;;16.70;99.90;;;;;;5070761;28;20200;-78
2021/12/30 12:06:39;;;;;;;0.68;0.57;;;16.60;99.90;;;;;;5071374;28;20214;-81
2021/12/30 12:09:14;;;;;;;1.10;0.70;;;16.50;99.90;;;;;;5071006;28;20245;-78
2021/12/30 12:11:41;;;;;;;0.50;0.40;;;16.60;99.90;;;;;;5069595;28;20676;-81
2021/12/30 12:14:14;;;;;;;0.70;0.47;;;16.60;99.90;;;;;;5053183;28;20196;-81
2021/12/30 12:16:53;;;;;;;0.40;0.40;;;16.60;99.90;;;;;;5053412;28;20253;-81
2021/12/30 12:19:44;;;;;;;1.42;0.55;;;16.60;99.90;;;;;;5071763;28;20329;-78
2021/12/30 12:22:30;;;;;;;1.00;0.52;;;16.70;99.90;;;;;;5065088;28;20679;-82
2021/12/30 12:25:19;;;;;;;1.00;0.35;;;16.80;99.90;;;;;;5070730;28;20241;-82
2021/12/30 12:27:48;;;;;;;0.35;0.35;;;16.80;99.90;;;;;;5070045;28;20699;-78
2021/12/30 12:30:35;;;;;;;0.85;0.40;;;16.80;99.90;;;;;;5052944;28;20204;-78
2021/12/30 12:33:25;;;;;;;0.30;0.30;;;16.60;99.90;;;;;;5070548;28;20694;-77
2021/12/30 12:35:51;;;;;;;0.55;0.40;;;16.70;99.90;;;;;;5038250;28;20560;-79
2021/12/30 12:38:35;;;;;;;0.35;0.30;;;16.60;99.90;;;;;;5071399;28;20210;-78
2021/12/30 12:41:14;;;;;;;0.90;0.68;;;16.50;99.90;;;;;;5070569;28;20663;-79
2021/12/30 12:43:40;;;;;;;0.95;0.80;;;16.50;99.90;;;;;;5070107;28;20245;-80
2021/12/30 12:46:06;;;;;;;0.47;0.30;;;16.30;99.90;;;;;;5069238;28;20220;-82
2021/12/30 12:48:39;;;;;;;0.50;0.50;;;16.20;99.90;;;;;;5052740;28;20222;-78
2021/12/30 12:51:07;;;;;;;1.13;0.70;;;16.10;99.90;;;;;;5068447;28;20262;-78
2021/12/30 12:53:32;;;;;;;1.10;0.60;;;16.10;99.90;;;;;;5071160;28;20194;-80
2021/12/30 12:56:12;;;;;;;0.57;0.52;;;16.10;99.90;;;;;;5069290;28;20271;-78
2021/12/30 12:58:51;;;;;;;0.43;0.43;;;16.00;99.90;;;;;;5052972;28;20200;-79